sensor_id;sensor_type;location;lat;lon;timestamp;P1;durP1;ratioP1;P2;durP2;ratioP2
54983;SDS011;40884;53.562;9.940;2022-12-18T00:00:41;16.73;;;11.43;;
54983;SDS011;40884;53.562;9.940;2022-12-18T00:01:42;14.50;;;12.27;;
54983;SDS011;40884;53.562;9.940;2022-12-18T00:02:42;15.63;;;12.23;;
54983;SDS011;40884;53.562;9.940;2022-12-18T00:03:42;15.80;;;11.60;;
54983;SDS011;40884;53.562;9.940;2022-12-18T00:04:42;16.13;;;12.23;;
54983;SDS011;40884;53.562;9.940;2022-12-18T00:05:49;14.67;;;11.47;;
54983;SDS011;40884;53.562;9.940;2022-12-18T00:06:49;15.95;;;11.98;;
54983;SDS011;40884;53.562;9.940;2022-12-18T00:07:49;18.93;;;11.87;;
54983;SDS011;40884;53.562;9.940;2022-12-18T00:08:49;13.23;;;10.27;;
54983;SDS011;40884;53.562;9.940;2022-12-18T00:09:50;16.13;;;11.50;;
54983;SDS011;40884;53.562;9.940;2022-12-18T00:10:50;15.20;;;11.70;;
54983;SDS011;40884;53.562;9.940;2022-12-18T00:11:50;15.57;;;11.40;;
54983;SDS011;40884;53.562;9.940;2022-12-18T00:12:50;17.23;;;11.90;;
54983;SDS011;40884;53.562;9.940;2022-12-18T00:13:50;15.20;;;11.13;;
54983;SDS011;40884;53.562;9.940;2022-12-18T00:14:51;15.40;;;11.43;;
54983;SDS011;40884;53.562;9.940;2022-12-18T00:15:51;15.43;;;11.57;;
54983;SDS011;40884;53.562;9.940;2022-12-18T00:16:51;13.87;;;10.70;;
54983;SDS011;40884;53.562;9.940;2022-12-18T00:17:51;12.97;;;10.17;;
54983;SDS011;40884;53.562;9.940;2022-12-18T00:18:53;15.07;;;11.07;;
54983;SDS011;40884;53.562;9.940;2022-12-18T00:19:54;14.52;;;10.63;;
54983;SDS011;40884;53.562;9.940;2022-12-18T00:20:54;14.97;;;10.90;;
54983;SDS011;40884;53.562;9.940;2022-12-18T00:21:57;16.13;;;10.55;;
54983;SDS011;40884;53.562;9.940;2022-12-18T00:22:58;14.73;;;10.67;;
54983;SDS011;40884;53.562;9.940;2022-12-18T00:23:58;13.20;;;10.57;;
54983;SDS011;40884;53.562;9.940;2022-12-18T00:24:58;14.63;;;11.53;;
54983;SDS011;40884;53.562;9.940;2022-12-18T00:26:02;14.47;;;11.33;;
54983;SDS011;40884;53.562;9.940;2022-12-18T00:27:04;14.80;;;10.63;;
54983;SDS011;40884;53.562;9.940;2022-12-18T00:28:04;13.63;;;10.83;;
54983;SDS011;40884;53.562;9.940;2022-12-18T00:29:06;13.40;;;10.53;;
54983;SDS011;40884;53.562;9.940;2022-12-18T00:30:07;14.40;;;11.30;;
54983;SDS011;40884;53.562;9.940;2022-12-18T00:31:09;15.10;;;11.37;;
54983;SDS011;40884;53.562;9.940;2022-12-18T00:32:09;14.00;;;10.65;;
54983;SDS011;40884;53.562;9.940;2022-12-18T00:33:09;15.07;;;10.90;;
54983;SDS011;40884;53.562;9.940;2022-12-18T00:34:10;12.57;;;10.60;;
54983;SDS011;40884;53.562;9.940;2022-12-18T00:35:13;15.32;;;10.90;;
54983;SDS011;40884;53.562;9.940;2022-12-18T00:36:14;12.40;;;10.23;;
54983;SDS011;40884;53.562;9.940;2022-12-18T00:37:15;17.17;;;12.23;;
54983;SDS011;40884;53.562;9.940;2022-12-18T00:38:15;16.50;;;12.83;;
54983;SDS011;40884;53.562;9.940;2022-12-18T00:39:15;16.70;;;12.07;;
54983;SDS011;40884;53.562;9.940;2022-12-18T00:40:18;17.85;;;12.45;;
54983;SDS011;40884;53.562;9.940;2022-12-18T00:41:18;14.40;;;11.37;;
54983;SDS011;40884;53.562;9.940;2022-12-18T00:42:18;14.53;;;10.83;;
54983;SDS011;40884;53.562;9.940;2022-12-18T00:43:18;14.13;;;10.73;;
54983;SDS011;40884;53.562;9.940;2022-12-18T00:44:19;14.37;;;10.60;;
54983;SDS011;40884;53.562;9.940;2022-12-18T00:45:19;12.97;;;10.67;;
54983;SDS011;40884;53.562;9.940;2022-12-18T00:46:20;13.73;;;10.75;;
54983;SDS011;40884;53.562;9.940;2022-12-18T00:47:21;15.18;;;11.68;;
54983;SDS011;40884;53.562;9.940;2022-12-18T00:48:22;14.30;;;11.00;;
54983;SDS011;40884;53.562;9.940;2022-12-18T00:49:22;14.93;;;11.00;;
54983;SDS011;40884;53.562;9.940;2022-12-18T00:50:23;14.07;;;10.63;;
54983;SDS011;40884;53.562;9.940;2022-12-18T00:51:24;15.70;;;11.15;;
54983;SDS011;40884;53.562;9.940;2022-12-18T00:52:24;15.83;;;11.40;;
54983;SDS011;40884;53.562;9.940;2022-12-18T00:53:25;12.17;;;10.47;;
54983;SDS011;40884;53.562;9.940;2022-12-18T00:54:25;15.30;;;11.23;;
54983;SDS011;40884;53.562;9.940;2022-12-18T00:55:25;15.83;;;10.80;;
54983;SDS011;40884;53.562;9.940;2022-12-18T00:56:25;16.27;;;11.30;;
54983;SDS011;40884;53.562;9.940;2022-12-18T00:57:26;13.25;;;10.95;;
54983;SDS011;40884;53.562;9.940;2022-12-18T00:58:26;15.33;;;10.53;;
54983;SDS011;40884;53.562;9.940;2022-12-18T00:59:26;11.40;;;10.10;;
54983;SDS011;40884;53.562;9.940;2022-12-18T01:00:27;16.37;;;10.97;;
54983;SDS011;40884;53.562;9.940;2022-12-18T01:01:27;13.50;;;10.97;;
54983;SDS011;40884;53.562;9.940;2022-12-18T01:02:27;14.47;;;10.50;;
54983;SDS011;40884;53.562;9.940;2022-12-18T01:03:27;13.67;;;10.33;;
54983;SDS011;40884;53.562;9.940;2022-12-18T01:04:31;14.33;;;10.63;;
54983;SDS011;40884;53.562;9.940;2022-12-18T01:05:31;12.27;;;10.10;;
54983;SDS011;40884;53.562;9.940;2022-12-18T01:06:32;13.73;;;10.00;;
54983;SDS011;40884;53.562;9.940;2022-12-18T01:07:32;14.80;;;10.07;;
54983;SDS011;40884;53.562;9.940;2022-12-18T01:08:32;12.30;;;9.40;;
54983;SDS011;40884;53.562;9.940;2022-12-18T01:09:32;13.63;;;10.50;;
54983;SDS011;40884;53.562;9.940;2022-12-18T01:10:32;12.23;;;9.50;;
54983;SDS011;40884;53.562;9.940;2022-12-18T01:11:32;12.53;;;10.10;;
54983;SDS011;40884;53.562;9.940;2022-12-18T01:12:33;13.87;;;10.33;;
54983;SDS011;40884;53.562;9.940;2022-12-18T01:13:33;13.37;;;10.60;;
54983;SDS011;40884;53.562;9.940;2022-12-18T01:14:33;15.57;;;10.70;;
54983;SDS011;40884;53.562;9.940;2022-12-18T01:15:33;15.47;;;10.83;;
54983;SDS011;40884;53.562;9.940;2022-12-18T01:16:33;13.30;;;10.50;;
54983;SDS011;40884;53.562;9.940;2022-12-18T01:17:33;13.80;;;10.80;;
54983;SDS011;40884;53.562;9.940;2022-12-18T01:18:35;15.13;;;10.18;;
54983;SDS011;40884;53.562;9.940;2022-12-18T01:19:35;13.23;;;10.13;;
54983;SDS011;40884;53.562;9.940;2022-12-18T01:20:35;14.50;;;10.47;;
54983;SDS011;40884;53.562;9.940;2022-12-18T01:21:35;12.73;;;9.20;;
54983;SDS011;40884;53.562;9.940;2022-12-18T01:22:37;13.55;;;10.05;;
54983;SDS011;40884;53.562;9.940;2022-12-18T01:23:37;13.57;;;10.00;;
54983;SDS011;40884;53.562;9.940;2022-12-18T01:24:38;12.40;;;10.03;;
54983;SDS011;40884;53.562;9.940;2022-12-18T01:25:38;13.73;;;10.23;;
54983;SDS011;40884;53.562;9.940;2022-12-18T01:26:38;12.77;;;10.03;;
54983;SDS011;40884;53.562;9.940;2022-12-18T01:27:38;14.13;;;10.80;;
54983;SDS011;40884;53.562;9.940;2022-12-18T01:28:39;14.23;;;10.43;;
54983;SDS011;40884;53.562;9.940;2022-12-18T01:29:39;77.40;;;14.40;;
54983;SDS011;40884;53.562;9.940;2022-12-18T01:30:39;13.33;;;10.00;;
54983;SDS011;40884;53.562;9.940;2022-12-18T01:31:39;13.90;;;10.10;;
54983;SDS011;40884;53.562;9.940;2022-12-18T01:32:39;11.47;;;9.50;;
54983;SDS011;40884;53.562;9.940;2022-12-18T01:33:39;13.10;;;9.73;;
54983;SDS011;40884;53.562;9.940;2022-12-18T01:34:40;13.13;;;9.80;;
54983;SDS011;40884;53.562;9.940;2022-12-18T01:35:41;13.80;;;10.17;;
54983;SDS011;40884;53.562;9.940;2022-12-18T01:36:41;12.40;;;9.32;;
54983;SDS011;40884;53.562;9.940;2022-12-18T01:37:41;14.23;;;10.13;;
54983;SDS011;40884;53.562;9.940;2022-12-18T01:38:41;13.20;;;9.93;;
54983;SDS011;40884;53.562;9.940;2022-12-18T01:39:41;13.67;;;9.77;;
54983;SDS011;40884;53.562;9.940;2022-12-18T01:40:41;14.90;;;10.27;;
54983;SDS011;40884;53.562;9.940;2022-12-18T01:41:42;12.67;;;9.83;;
54983;SDS011;40884;53.562;9.940;2022-12-18T01:42:42;11.90;;;9.90;;
54983;SDS011;40884;53.562;9.940;2022-12-18T01:45:45;11.20;;;9.48;;
54983;SDS011;40884;53.562;9.940;2022-12-18T01:46:45;14.53;;;9.77;;
54983;SDS011;40884;53.562;9.940;2022-12-18T01:47:49;13.70;;;9.87;;
54983;SDS011;40884;53.562;9.940;2022-12-18T01:48:52;14.55;;;9.50;;
54983;SDS011;40884;53.562;9.940;2022-12-18T01:49:55;13.57;;;9.90;;
54983;SDS011;40884;53.562;9.940;2022-12-18T01:50:55;13.48;;;9.30;;
54983;SDS011;40884;53.562;9.940;2022-12-18T01:51:55;13.27;;;10.07;;
54983;SDS011;40884;53.562;9.940;2022-12-18T01:53:12;13.37;;;10.43;;
54983;SDS011;40884;53.562;9.940;2022-12-18T01:54:12;13.80;;;10.75;;
54983;SDS011;40884;53.562;9.940;2022-12-18T01:55:13;13.20;;;10.03;;
54983;SDS011;40884;53.562;9.940;2022-12-18T01:56:15;13.70;;;9.40;;
54983;SDS011;40884;53.562;9.940;2022-12-18T01:57:16;12.90;;;10.35;;
54983;SDS011;40884;53.562;9.940;2022-12-18T01:58:17;13.07;;;9.27;;
54983;SDS011;40884;53.562;9.940;2022-12-18T01:59:17;14.87;;;10.80;;
54983;SDS011;40884;53.562;9.940;2022-12-18T02:00:18;12.07;;;9.87;;
54983;SDS011;40884;53.562;9.940;2022-12-18T02:01:20;13.43;;;10.43;;
54983;SDS011;40884;53.562;9.940;2022-12-18T02:02:21;13.50;;;9.57;;
54983;SDS011;40884;53.562;9.940;2022-12-18T02:03:21;13.47;;;10.60;;
54983;SDS011;40884;53.562;9.940;2022-12-18T02:04:22;13.77;;;10.40;;
54983;SDS011;40884;53.562;9.940;2022-12-18T02:05:38;13.10;;;9.75;;
54983;SDS011;40884;53.562;9.940;2022-12-18T02:06:40;13.32;;;9.35;;
54983;SDS011;40884;53.562;9.940;2022-12-18T02:08:58;13.20;;;9.45;;
54983;SDS011;40884;53.562;9.940;2022-12-18T02:10:03;12.00;;;9.25;;
54983;SDS011;40884;53.562;9.940;2022-12-18T02:11:08;15.40;;;9.40;;
54983;SDS011;40884;53.562;9.940;2022-12-18T02:12:17;12.65;;;9.23;;
54983;SDS011;40884;53.562;9.940;2022-12-18T02:13:28;14.02;;;9.68;;
54983;SDS011;40884;53.562;9.940;2022-12-18T02:15:32;12.93;;;9.23;;
54983;SDS011;40884;53.562;9.940;2022-12-18T02:16:52;11.90;;;9.00;;
54983;SDS011;40884;53.562;9.940;2022-12-18T02:18:01;12.40;;;9.13;;
54983;SDS011;40884;53.562;9.940;2022-12-18T02:19:06;13.68;;;9.60;;
54983;SDS011;40884;53.562;9.940;2022-12-18T02:20:14;14.57;;;9.50;;
54983;SDS011;40884;53.562;9.940;2022-12-18T02:21:34;12.57;;;9.27;;
54983;SDS011;40884;53.562;9.940;2022-12-18T02:23:57;13.77;;;9.27;;
54983;SDS011;40884;53.562;9.940;2022-12-18T02:27:19;11.43;;;8.83;;
54983;SDS011;40884;53.562;9.940;2022-12-18T02:28:20;11.47;;;8.43;;
54983;SDS011;40884;53.562;9.940;2022-12-18T02:29:25;11.45;;;8.82;;
54983;SDS011;40884;53.562;9.940;2022-12-18T02:30:27;12.32;;;8.82;;
54983;SDS011;40884;53.562;9.940;2022-12-18T02:31:30;11.75;;;8.63;;
54983;SDS011;40884;53.562;9.940;2022-12-18T02:32:33;12.45;;;8.88;;
54983;SDS011;40884;53.562;9.940;2022-12-18T02:33:34;12.00;;;9.02;;
54983;SDS011;40884;53.562;9.940;2022-12-18T02:34:37;11.77;;;9.27;;
54983;SDS011;40884;53.562;9.940;2022-12-18T02:35:40;12.52;;;8.95;;
54983;SDS011;40884;53.562;9.940;2022-12-18T02:36:42;12.30;;;8.77;;
54983;SDS011;40884;53.562;9.940;2022-12-18T02:37:44;12.40;;;8.40;;
54983;SDS011;40884;53.562;9.940;2022-12-18T02:38:45;10.75;;;8.70;;
54983;SDS011;40884;53.562;9.940;2022-12-18T02:39:48;9.70;;;7.95;;
54983;SDS011;40884;53.562;9.940;2022-12-18T02:40:49;13.90;;;9.10;;
54983;SDS011;40884;53.562;9.940;2022-12-18T02:41:51;13.07;;;8.35;;
54983;SDS011;40884;53.562;9.940;2022-12-18T02:42:52;12.43;;;8.93;;
54983;SDS011;40884;53.562;9.940;2022-12-18T02:43:55;12.02;;;9.13;;
54983;SDS011;40884;53.562;9.940;2022-12-18T02:44:55;11.57;;;8.75;;
54983;SDS011;40884;53.562;9.940;2022-12-18T02:45:58;12.32;;;9.13;;
54983;SDS011;40884;53.562;9.940;2022-12-18T02:47:02;11.38;;;9.07;;
54983;SDS011;40884;53.562;9.940;2022-12-18T02:48:02;12.13;;;8.60;;
54983;SDS011;40884;53.562;9.940;2022-12-18T02:49:12;13.13;;;9.10;;
54983;SDS011;40884;53.562;9.940;2022-12-18T02:50:25;11.70;;;8.20;;
54983;SDS011;40884;53.562;9.940;2022-12-18T02:51:33;12.07;;;9.25;;
54983;SDS011;40884;53.562;9.940;2022-12-18T02:52:38;11.90;;;9.68;;
54983;SDS011;40884;53.562;9.940;2022-12-18T02:53:43;15.05;;;10.27;;
54983;SDS011;40884;53.562;9.940;2022-12-18T02:55:06;11.38;;;9.60;;
54983;SDS011;40884;53.562;9.940;2022-12-18T02:56:13;13.30;;;9.43;;
54983;SDS011;40884;53.562;9.940;2022-12-18T02:57:21;13.70;;;10.25;;
54983;SDS011;40884;53.562;9.940;2022-12-18T02:58:30;13.93;;;9.55;;
54983;SDS011;40884;53.562;9.940;2022-12-18T02:59:42;13.25;;;9.13;;
54983;SDS011;40884;53.562;9.940;2022-12-18T03:04:26;11.77;;;9.43;;
54983;SDS011;40884;53.562;9.940;2022-12-18T03:05:28;13.13;;;10.02;;
54983;SDS011;40884;53.562;9.940;2022-12-18T03:06:38;14.00;;;9.25;;
54983;SDS011;40884;53.562;9.940;2022-12-18T03:07:46;12.30;;;9.32;;
54983;SDS011;40884;53.562;9.940;2022-12-18T03:08:47;13.70;;;9.88;;
54983;SDS011;40884;53.562;9.940;2022-12-18T03:09:50;13.95;;;9.05;;
54983;SDS011;40884;53.562;9.940;2022-12-18T03:11:01;12.80;;;9.23;;
54983;SDS011;40884;53.562;9.940;2022-12-18T03:12:06;11.85;;;9.40;;
54983;SDS011;40884;53.562;9.940;2022-12-18T03:13:10;11.75;;;8.90;;
54983;SDS011;40884;53.562;9.940;2022-12-18T03:14:11;13.48;;;9.48;;
54983;SDS011;40884;53.562;9.940;2022-12-18T03:16:21;11.30;;;9.32;;
54983;SDS011;40884;53.562;9.940;2022-12-18T03:17:23;12.68;;;9.02;;
54983;SDS011;40884;53.562;9.940;2022-12-18T03:19:55;12.27;;;9.00;;
54983;SDS011;40884;53.562;9.940;2022-12-18T03:20:57;12.52;;;9.25;;
54983;SDS011;40884;53.562;9.940;2022-12-18T03:22:00;13.45;;;9.50;;
54983;SDS011;40884;53.562;9.940;2022-12-18T03:23:10;12.13;;;9.57;;
54983;SDS011;40884;53.562;9.940;2022-12-18T03:24:11;12.30;;;9.30;;
54983;SDS011;40884;53.562;9.940;2022-12-18T03:25:13;11.53;;;8.53;;
54983;SDS011;40884;53.562;9.940;2022-12-18T03:26:15;12.75;;;9.07;;
54983;SDS011;40884;53.562;9.940;2022-12-18T03:27:18;13.93;;;9.40;;
54983;SDS011;40884;53.562;9.940;2022-12-18T03:28:22;11.65;;;9.55;;
54983;SDS011;40884;53.562;9.940;2022-12-18T03:29:35;13.82;;;9.93;;
54983;SDS011;40884;53.562;9.940;2022-12-18T03:30:38;13.88;;;9.30;;
54983;SDS011;40884;53.562;9.940;2022-12-18T03:31:39;13.50;;;8.63;;
54983;SDS011;40884;53.562;9.940;2022-12-18T03:33:42;12.90;;;9.27;;
54983;SDS011;40884;53.562;9.940;2022-12-18T03:34:45;13.90;;;10.13;;
54983;SDS011;40884;53.562;9.940;2022-12-18T03:35:48;13.68;;;9.32;;
54983;SDS011;40884;53.562;9.940;2022-12-18T03:36:51;15.13;;;9.50;;
54983;SDS011;40884;53.562;9.940;2022-12-18T03:37:52;13.33;;;10.13;;
54983;SDS011;40884;53.562;9.940;2022-12-18T03:38:52;13.20;;;8.53;;
54983;SDS011;40884;53.562;9.940;2022-12-18T03:39:52;14.37;;;9.70;;
54983;SDS011;40884;53.562;9.940;2022-12-18T03:40:58;11.77;;;8.70;;
54983;SDS011;40884;53.562;9.940;2022-12-18T03:42:16;13.23;;;9.07;;
54983;SDS011;40884;53.562;9.940;2022-12-18T03:43:30;13.00;;;9.05;;
54983;SDS011;40884;53.562;9.940;2022-12-18T03:44:55;11.38;;;8.55;;
54983;SDS011;40884;53.562;9.940;2022-12-18T03:46:02;12.82;;;8.82;;
54983;SDS011;40884;53.562;9.940;2022-12-18T03:47:07;11.15;;;8.70;;
54983;SDS011;40884;53.562;9.940;2022-12-18T03:48:18;12.73;;;9.77;;
54983;SDS011;40884;53.562;9.940;2022-12-18T03:52:48;11.33;;;8.57;;
54983;SDS011;40884;53.562;9.940;2022-12-18T03:53:57;12.55;;;8.32;;
54983;SDS011;40884;53.562;9.940;2022-12-18T03:55:03;13.93;;;9.60;;
54983;SDS011;40884;53.562;9.940;2022-12-18T03:56:04;10.45;;;8.50;;
54983;SDS011;40884;53.562;9.940;2022-12-18T03:57:14;11.13;;;9.15;;
54983;SDS011;40884;53.562;9.940;2022-12-18T03:58:17;12.38;;;8.57;;
54983;SDS011;40884;53.562;9.940;2022-12-18T03:59:27;10.73;;;8.73;;
54983;SDS011;40884;53.562;9.940;2022-12-18T04:00:27;12.07;;;8.97;;
54983;SDS011;40884;53.562;9.940;2022-12-18T04:01:43;11.18;;;9.10;;
54983;SDS011;40884;53.562;9.940;2022-12-18T04:02:50;11.68;;;8.60;;
54983;SDS011;40884;53.562;9.940;2022-12-18T04:03:56;12.93;;;9.25;;
54983;SDS011;40884;53.562;9.940;2022-12-18T04:04:58;11.00;;;8.50;;
54983;SDS011;40884;53.562;9.940;2022-12-18T04:05:59;11.85;;;8.63;;
54983;SDS011;40884;53.562;9.940;2022-12-18T04:07:01;11.75;;;8.80;;
54983;SDS011;40884;53.562;9.940;2022-12-18T04:08:02;12.30;;;8.70;;
54983;SDS011;40884;53.562;9.940;2022-12-18T04:09:03;10.35;;;8.48;;
54983;SDS011;40884;53.562;9.940;2022-12-18T04:10:06;10.60;;;8.65;;
54983;SDS011;40884;53.562;9.940;2022-12-18T04:11:06;10.97;;;8.73;;
54983;SDS011;40884;53.562;9.940;2022-12-18T04:12:08;12.87;;;8.30;;
54983;SDS011;40884;53.562;9.940;2022-12-18T04:13:09;11.80;;;8.38;;
54983;SDS011;40884;53.562;9.940;2022-12-18T04:14:09;10.02;;;8.63;;
54983;SDS011;40884;53.562;9.940;2022-12-18T04:15:10;11.00;;;8.73;;
54983;SDS011;40884;53.562;9.940;2022-12-18T04:16:10;10.43;;;7.80;;
54983;SDS011;40884;53.562;9.940;2022-12-18T04:17:14;9.30;;;7.93;;
54983;SDS011;40884;53.562;9.940;2022-12-18T04:18:14;11.83;;;8.40;;
54983;SDS011;40884;53.562;9.940;2022-12-18T04:19:16;10.15;;;8.18;;
54983;SDS011;40884;53.562;9.940;2022-12-18T04:20:18;11.93;;;8.23;;
54983;SDS011;40884;53.562;9.940;2022-12-18T04:21:19;10.97;;;9.00;;
54983;SDS011;40884;53.562;9.940;2022-12-18T04:22:20;11.63;;;8.88;;
54983;SDS011;40884;53.562;9.940;2022-12-18T04:23:25;12.30;;;8.52;;
54983;SDS011;40884;53.562;9.940;2022-12-18T04:24:27;12.35;;;8.35;;
54983;SDS011;40884;53.562;9.940;2022-12-18T04:25:37;13.52;;;8.93;;
54983;SDS011;40884;53.562;9.940;2022-12-18T04:26:41;11.77;;;8.38;;
54983;SDS011;40884;53.562;9.940;2022-12-18T04:27:50;11.60;;;7.95;;
54983;SDS011;40884;53.562;9.940;2022-12-18T04:28:51;9.90;;;8.50;;
54983;SDS011;40884;53.562;9.940;2022-12-18T04:29:51;13.13;;;8.33;;
54983;SDS011;40884;53.562;9.940;2022-12-18T04:30:52;10.73;;;8.43;;
54983;SDS011;40884;53.562;9.940;2022-12-18T04:31:53;10.65;;;8.73;;
54983;SDS011;40884;53.562;9.940;2022-12-18T04:32:54;11.07;;;8.67;;
54983;SDS011;40884;53.562;9.940;2022-12-18T04:33:55;12.13;;;9.02;;
54983;SDS011;40884;53.562;9.940;2022-12-18T04:34:56;11.00;;;8.30;;
54983;SDS011;40884;53.562;9.940;2022-12-18T04:35:56;11.50;;;8.67;;
54983;SDS011;40884;53.562;9.940;2022-12-18T04:36:56;10.90;;;8.70;;
54983;SDS011;40884;53.562;9.940;2022-12-18T04:37:57;10.57;;;8.70;;
54983;SDS011;40884;53.562;9.940;2022-12-18T04:38:57;11.87;;;8.93;;
54983;SDS011;40884;53.562;9.940;2022-12-18T04:39:57;11.87;;;8.13;;
54983;SDS011;40884;53.562;9.940;2022-12-18T04:41:05;12.82;;;9.38;;
54983;SDS011;40884;53.562;9.940;2022-12-18T04:42:05;10.73;;;8.13;;
54983;SDS011;40884;53.562;9.940;2022-12-18T04:43:05;10.67;;;8.13;;
54983;SDS011;40884;53.562;9.940;2022-12-18T04:44:06;12.00;;;8.60;;
54983;SDS011;40884;53.562;9.940;2022-12-18T04:45:06;9.33;;;7.87;;
54983;SDS011;40884;53.562;9.940;2022-12-18T04:46:07;11.23;;;8.30;;
54983;SDS011;40884;53.562;9.940;2022-12-18T04:47:07;11.97;;;8.50;;
54983;SDS011;40884;53.562;9.940;2022-12-18T04:48:07;11.83;;;8.70;;
54983;SDS011;40884;53.562;9.940;2022-12-18T04:49:07;13.27;;;8.70;;
54983;SDS011;40884;53.562;9.940;2022-12-18T04:50:07;10.63;;;8.33;;
54983;SDS011;40884;53.562;9.940;2022-12-18T04:51:08;10.17;;;7.90;;
54983;SDS011;40884;53.562;9.940;2022-12-18T04:52:08;10.87;;;7.87;;
54983;SDS011;40884;53.562;9.940;2022-12-18T04:53:08;12.10;;;8.20;;
54983;SDS011;40884;53.562;9.940;2022-12-18T04:54:08;12.00;;;8.10;;
54983;SDS011;40884;53.562;9.940;2022-12-18T04:55:08;10.27;;;8.17;;
54983;SDS011;40884;53.562;9.940;2022-12-18T04:56:09;11.37;;;8.60;;
54983;SDS011;40884;53.562;9.940;2022-12-18T04:57:10;9.32;;;8.00;;
54983;SDS011;40884;53.562;9.940;2022-12-18T04:58:10;12.60;;;9.33;;
54983;SDS011;40884;53.562;9.940;2022-12-18T04:59:10;10.70;;;8.17;;
54983;SDS011;40884;53.562;9.940;2022-12-18T05:00:10;11.00;;;8.87;;
54983;SDS011;40884;53.562;9.940;2022-12-18T05:01:12;11.90;;;8.70;;
54983;SDS011;40884;53.562;9.940;2022-12-18T05:02:12;14.70;;;8.73;;
54983;SDS011;40884;53.562;9.940;2022-12-18T05:03:12;10.67;;;7.90;;
54983;SDS011;40884;53.562;9.940;2022-12-18T05:04:12;12.23;;;8.70;;
54983;SDS011;40884;53.562;9.940;2022-12-18T05:05:12;11.17;;;9.00;;
54983;SDS011;40884;53.562;9.940;2022-12-18T05:06:13;10.33;;;8.33;;
54983;SDS011;40884;53.562;9.940;2022-12-18T05:07:13;11.77;;;8.37;;
54983;SDS011;40884;53.562;9.940;2022-12-18T05:08:13;12.00;;;8.77;;
54983;SDS011;40884;53.562;9.940;2022-12-18T05:09:13;12.60;;;9.03;;
54983;SDS011;40884;53.562;9.940;2022-12-18T05:10:13;10.93;;;8.47;;
54983;SDS011;40884;53.562;9.940;2022-12-18T05:11:14;13.83;;;9.30;;
54983;SDS011;40884;53.562;9.940;2022-12-18T05:12:14;12.20;;;8.80;;
54983;SDS011;40884;53.562;9.940;2022-12-18T05:13:14;12.83;;;8.87;;
54983;SDS011;40884;53.562;9.940;2022-12-18T05:14:14;11.40;;;8.70;;
54983;SDS011;40884;53.562;9.940;2022-12-18T05:15:15;11.17;;;8.60;;
54983;SDS011;40884;53.562;9.940;2022-12-18T05:16:15;12.00;;;8.97;;
54983;SDS011;40884;53.562;9.940;2022-12-18T05:17:15;10.93;;;8.60;;
54983;SDS011;40884;53.562;9.940;2022-12-18T05:18:15;13.13;;;8.97;;
54983;SDS011;40884;53.562;9.940;2022-12-18T05:19:15;11.43;;;8.70;;
54983;SDS011;40884;53.562;9.940;2022-12-18T05:20:16;10.30;;;8.40;;
54983;SDS011;40884;53.562;9.940;2022-12-18T05:21:16;11.10;;;8.87;;
54983;SDS011;40884;53.562;9.940;2022-12-18T05:22:16;12.43;;;8.43;;
54983;SDS011;40884;53.562;9.940;2022-12-18T05:23:16;10.30;;;8.17;;
54983;SDS011;40884;53.562;9.940;2022-12-18T05:24:16;12.90;;;9.00;;
54983;SDS011;40884;53.562;9.940;2022-12-18T05:25:16;12.80;;;9.37;;
54983;SDS011;40884;53.562;9.940;2022-12-18T05:26:17;12.87;;;9.43;;
54983;SDS011;40884;53.562;9.940;2022-12-18T05:27:17;11.57;;;9.20;;
54983;SDS011;40884;53.562;9.940;2022-12-18T05:28:17;11.47;;;8.67;;
54983;SDS011;40884;53.562;9.940;2022-12-18T05:29:18;13.83;;;9.43;;
54983;SDS011;40884;53.562;9.940;2022-12-18T05:30:18;12.87;;;8.77;;
54983;SDS011;40884;53.562;9.940;2022-12-18T05:31:18;11.73;;;8.50;;
54983;SDS011;40884;53.562;9.940;2022-12-18T05:32:18;12.50;;;9.33;;
54983;SDS011;40884;53.562;9.940;2022-12-18T05:33:18;13.23;;;9.00;;
54983;SDS011;40884;53.562;9.940;2022-12-18T05:34:19;12.57;;;9.33;;
54983;SDS011;40884;53.562;9.940;2022-12-18T05:35:19;12.07;;;8.40;;
54983;SDS011;40884;53.562;9.940;2022-12-18T05:36:19;12.43;;;9.57;;
54983;SDS011;40884;53.562;9.940;2022-12-18T05:37:19;12.23;;;9.03;;
54983;SDS011;40884;53.562;9.940;2022-12-18T05:38:20;13.63;;;9.77;;
54983;SDS011;40884;53.562;9.940;2022-12-18T05:39:20;14.80;;;10.07;;
54983;SDS011;40884;53.562;9.940;2022-12-18T05:40:21;11.37;;;9.37;;
54983;SDS011;40884;53.562;9.940;2022-12-18T05:41:21;13.17;;;9.57;;
54983;SDS011;40884;53.562;9.940;2022-12-18T05:42:21;13.13;;;9.13;;
54983;SDS011;40884;53.562;9.940;2022-12-18T05:43:22;12.53;;;9.23;;
54983;SDS011;40884;53.562;9.940;2022-12-18T05:44:22;14.20;;;9.73;;
54983;SDS011;40884;53.562;9.940;2022-12-18T05:45:22;13.83;;;10.27;;
54983;SDS011;40884;53.562;9.940;2022-12-18T05:46:22;12.57;;;9.67;;
54983;SDS011;40884;53.562;9.940;2022-12-18T05:47:23;15.37;;;9.20;;
54983;SDS011;40884;53.562;9.940;2022-12-18T05:48:23;14.53;;;10.27;;
54983;SDS011;40884;53.562;9.940;2022-12-18T05:49:23;12.60;;;10.23;;
54983;SDS011;40884;53.562;9.940;2022-12-18T05:50:23;12.53;;;9.90;;
54983;SDS011;40884;53.562;9.940;2022-12-18T05:51:23;14.07;;;10.33;;
54983;SDS011;40884;53.562;9.940;2022-12-18T05:52:23;13.23;;;10.57;;
54983;SDS011;40884;53.562;9.940;2022-12-18T05:53:23;13.63;;;9.40;;
54983;SDS011;40884;53.562;9.940;2022-12-18T05:54:23;13.30;;;9.47;;
54983;SDS011;40884;53.562;9.940;2022-12-18T05:55:23;13.70;;;9.97;;
54983;SDS011;40884;53.562;9.940;2022-12-18T05:56:24;13.97;;;10.20;;
54983;SDS011;40884;53.562;9.940;2022-12-18T05:57:24;14.00;;;9.77;;
54983;SDS011;40884;53.562;9.940;2022-12-18T05:58:24;12.63;;;9.60;;
54983;SDS011;40884;53.562;9.940;2022-12-18T05:59:24;13.63;;;9.47;;
54983;SDS011;40884;53.562;9.940;2022-12-18T06:00:24;13.70;;;10.60;;
54983;SDS011;40884;53.562;9.940;2022-12-18T06:01:25;14.57;;;10.57;;
54983;SDS011;40884;53.562;9.940;2022-12-18T06:02:25;14.25;;;10.40;;
54983;SDS011;40884;53.562;9.940;2022-12-18T06:03:25;14.37;;;9.83;;
54983;SDS011;40884;53.562;9.940;2022-12-18T06:04:26;14.50;;;10.10;;
54983;SDS011;40884;53.562;9.940;2022-12-18T06:05:26;15.23;;;9.80;;
54983;SDS011;40884;53.562;9.940;2022-12-18T06:06:27;15.27;;;10.70;;
54983;SDS011;40884;53.562;9.940;2022-12-18T06:07:27;15.13;;;10.67;;
54983;SDS011;40884;53.562;9.940;2022-12-18T06:08:27;12.37;;;9.53;;
54983;SDS011;40884;53.562;9.940;2022-12-18T06:09:28;12.63;;;9.97;;
54983;SDS011;40884;53.562;9.940;2022-12-18T06:10:28;13.00;;;9.70;;
54983;SDS011;40884;53.562;9.940;2022-12-18T06:11:28;11.70;;;9.17;;
54983;SDS011;40884;53.562;9.940;2022-12-18T06:12:29;11.47;;;9.00;;
54983;SDS011;40884;53.562;9.940;2022-12-18T06:13:29;10.63;;;9.10;;
54983;SDS011;40884;53.562;9.940;2022-12-18T06:14:29;14.03;;;8.60;;
54983;SDS011;40884;53.562;9.940;2022-12-18T06:15:29;10.60;;;8.90;;
54983;SDS011;40884;53.562;9.940;2022-12-18T06:16:30;12.00;;;9.07;;
54983;SDS011;40884;53.562;9.940;2022-12-18T06:17:30;10.53;;;8.70;;
54983;SDS011;40884;53.562;9.940;2022-12-18T06:18:31;12.57;;;9.00;;
54983;SDS011;40884;53.562;9.940;2022-12-18T06:19:31;11.00;;;8.50;;
54983;SDS011;40884;53.562;9.940;2022-12-18T06:20:32;11.07;;;9.00;;
54983;SDS011;40884;53.562;9.940;2022-12-18T06:21:32;12.07;;;8.63;;
54983;SDS011;40884;53.562;9.940;2022-12-18T06:22:32;11.80;;;9.13;;
54983;SDS011;40884;53.562;9.940;2022-12-18T06:23:32;12.37;;;8.63;;
54983;SDS011;40884;53.562;9.940;2022-12-18T06:24:32;12.57;;;8.80;;
54983;SDS011;40884;53.562;9.940;2022-12-18T06:25:32;14.00;;;9.53;;